Weather reports worldwide

Advertisment
Gogerddan, United Kingdom (99150): temperature & dewpoint: 15.01.2020 22:00:00 - 21.01.2020 22:00:00 (GMT)Gogerddan, United Kingdom (99150): temperature -20cm & temperature -100cm: 15.01.2020 22:00:00 - 21.01.2020 22:00:00 (GMT)Gogerddan, United Kingdom (99150): precipitation: 15.01.2020 22:00:00 - 21.01.2020 22:00:00 (GMT)
Date & Time tt [°C] td [°C] tt -20cm [°C] tt -100cm [°C] rr [mm]
21.01.2020 22:00:00 5,8 5,2 - - 0,0
21.01.2020 21:00:00 5,9 5,0 - - 0,0
21.01.2020 20:00:00 6,1 4,9 - - 0,0
21.01.2020 19:00:00 6,2 4,9 - - 0,0
21.01.2020 18:00:00 6,4 4,9 - - 0,0
21.01.2020 17:00:00 6,9 4,9 - - 0,0
21.01.2020 16:00:00 7,3 4,6 - - 0,0
21.01.2020 15:00:00 7,3 4,1 - - 0,0
21.01.2020 14:00:00 7,3 4,4 - - 0,0
21.01.2020 13:00:00 6,8 5,2 - - 0,0
21.01.2020 12:00:00 6,0 5,3 - - 0,0
21.01.2020 11:00:00 4,9 4,5 - - 0,0
21.01.2020 10:00:00 4,2 3,9 - - 0,0
21.01.2020 09:00:00 3,6 3,3 5,7 7,7 0,0
21.01.2020 08:00:00 2,8 2,6 - - 0,0
21.01.2020 07:00:00 2,6 2,4 - - 0,0
21.01.2020 06:00:00 1,9 1,6 - - 0,0
21.01.2020 05:00:00 1,3 1,0 - - 0,0
21.01.2020 04:00:00 1,0 0,7 - - 0,0
21.01.2020 03:00:00 2,3 2,0 - - 0,0
21.01.2020 02:00:00 2,6 2,3 - - 0,0
21.01.2020 01:00:00 2,1 1,7 - - 0,0
21.01.2020 00:00:00 2,5 2,1 - - 0,0
20.01.2020 23:00:00 3,0 2,5 - - 0,0
20.01.2020 22:00:00 3,4 2,9 - - 0,0
20.01.2020 21:00:00 3,2 2,6 - - 0,0
20.01.2020 20:00:00 3,1 2,5 - - 0,0
20.01.2020 19:00:00 2,7 1,9 - - 0,0
20.01.2020 18:00:00 4,4 3,3 - - 0,0
20.01.2020 17:00:00 6,2 4,0 - - 0,0
20.01.2020 16:00:00 7,4 4,9 - - 0,0
20.01.2020 15:00:00 7,6 4,7 - - 0,0
20.01.2020 14:00:00 8,0 4,8 - - 0,0
20.01.2020 13:00:00 7,7 4,5 - - 0,0
20.01.2020 12:00:00 6,8 4,9 - - 0,0
20.01.2020 11:00:00 2,5 1,9 - - 0,0
20.01.2020 10:00:00 2,0 1,5 - - 0,2
20.01.2020 09:00:00 1,0 0,6 5,7 8,0 0,0
20.01.2020 08:00:00 0,4 0,0 - - 0,0
20.01.2020 07:00:00 -0,6 -1,0 - - 0,0
20.01.2020 06:00:00 -0,9 -1,3 - - 0,0
20.01.2020 05:00:00 -0,4 -0,7 - - 0,0
20.01.2020 04:00:00 -1,1 -1,6 - - 0,0
20.01.2020 03:00:00 -0,8 -1,3 - - 0,0
20.01.2020 02:00:00 -0,2 -0,6 - - 0,0
20.01.2020 01:00:00 0,2 -0,3 - - 0,0
20.01.2020 00:00:00 -0,6 -1,2 - - 0,0
19.01.2020 23:00:00 -0,1 -0,9 - - 0,0
19.01.2020 22:00:00 1,1 0,1 - - 0,0
19.01.2020 21:00:00 1,2 0,1 - - 0,0
19.01.2020 20:00:00 1,0 0,1 - - 0,0
19.01.2020 19:00:00 0,3 -1,4 - - 0,0
19.01.2020 18:00:00 1,7 -0,2 - - 0,0
19.01.2020 17:00:00 3,1 0,9 - - 0,0
19.01.2020 16:00:00 6,5 2,2 - - 0,0
19.01.2020 15:00:00 6,4 1,4 - - 0,0
19.01.2020 14:00:00 7,1 1,7 - - 0,0
19.01.2020 13:00:00 7,1 2,6 - - 0,0
19.01.2020 12:00:00 5,1 2,3 - - 0,2
19.01.2020 11:00:00 1,7 0,9 - - 0,0
19.01.2020 10:00:00 -1,7 -2,2 - - 0,0
19.01.2020 09:00:00 -2,6 -3,0 6,2 8,2 0,0
19.01.2020 08:00:00 -2,6 -3,0 - - 0,0
19.01.2020 07:00:00 -2,4 -2,9 - - 0,0
19.01.2020 06:00:00 -2,1 -2,5 - - 0,0
19.01.2020 05:00:00 -2,0 -2,5 - - 0,0
19.01.2020 04:00:00 -1,8 -2,2 - - 0,0
19.01.2020 03:00:00 -1,1 -1,5 - - 0,0
19.01.2020 02:00:00 -0,7 -1,1 - - 0,0
19.01.2020 01:00:00 -1,2 -1,6 - - 0,0
19.01.2020 00:00:00 -1,2 -1,7 - - 0,0
18.01.2020 23:00:00 -0,5 -1,0 - - 0,0
18.01.2020 22:00:00 0,0 -0,6 - - 0,0
18.01.2020 21:00:00 -0,8 -1,7 - - 0,0
18.01.2020 20:00:00 0,1 -0,8 - - 0,0
18.01.2020 19:00:00 0,9 0,1 - - 0,0
18.01.2020 18:00:00 1,5 0,4 - - 0,0
18.01.2020 17:00:00 3,5 2,0 - - 0,0
18.01.2020 16:00:00 5,2 2,7 - - 0,0
18.01.2020 15:00:00 6,1 2,7 - - 0,0
18.01.2020 14:00:00 6,6 3,6 - - 0,0
18.01.2020 13:00:00 7,7 3,9 - - 0,0
18.01.2020 12:00:00 5,6 3,0 - - 0,0
18.01.2020 11:00:00 2,6 1,4 - - 0,0
18.01.2020 10:00:00 1,2 0,6 - - 0,0
18.01.2020 09:00:00 0,4 -0,3 7,0 8,2 0,0
18.01.2020 08:00:00 0,4 -0,6 - - 0,0
18.01.2020 07:00:00 1,5 0,2 - - 0,0
18.01.2020 06:00:00 3,5 0,8 - - 0,0
18.01.2020 05:00:00 4,3 2,0 - - 0,0
18.01.2020 04:00:00 5,3 1,4 - - 0,0
18.01.2020 03:00:00 5,2 2,0 - - 0,0
18.01.2020 02:00:00 6,0 2,5 - - 0,0
18.01.2020 01:00:00 5,4 1,8 - - 0,0
18.01.2020 00:00:00 5,6 3,0 - - 0,0
17.01.2020 23:00:00 6,2 3,9 - - 0,0
17.01.2020 22:00:00 4,5 2,5 - - 0,0
17.01.2020 21:00:00 5,1 3,1 - - 0,2
17.01.2020 20:00:00 5,7 2,9 - - 0,0
17.01.2020 19:00:00 5,0 3,4 - - 0,0
17.01.2020 18:00:00 3,4 2,3 - - 0,0
17.01.2020 17:00:00 4,5 2,5 - - 0,8
17.01.2020 16:00:00 4,7 2,6 - - 2,0
17.01.2020 15:00:00 6,3 3,1 - - 0,2
17.01.2020 14:00:00 7,6 1,8 - - 0,0
17.01.2020 13:00:00 8,0 3,3 - - 0,0
17.01.2020 12:00:00 7,0 4,3 - - 0,4
17.01.2020 11:00:00 4,9 3,5 - - 0,0
17.01.2020 10:00:00 4,6 2,5 - - 0,6
17.01.2020 09:00:00 4,6 2,7 7,7 8,2 2,4
17.01.2020 08:00:00 4,4 3,0 - - 4,0
17.01.2020 07:00:00 6,7 5,5 - - 0,4
17.01.2020 06:00:00 6,7 5,4 - - 0,0
17.01.2020 05:00:00 6,9 5,9 - - 1,4
17.01.2020 04:00:00 7,4 5,6 - - 0,0
17.01.2020 03:00:00 7,8 6,5 - - 1,8
17.01.2020 02:00:00 9,0 6,3 - - 0,0
17.01.2020 01:00:00 8,9 6,7 - - 0,0
17.01.2020 00:00:00 8,7 6,6 - - 0,2
16.01.2020 23:00:00 8,7 6,0 - - 0,0
16.01.2020 22:00:00 8,2 5,9 - - 0,0
16.01.2020 21:00:00 8,6 6,0 - - 0,0
16.01.2020 20:00:00 9,0 6,0 - - 0,0
16.01.2020 19:00:00 9,5 6,9 - - 0,0
16.01.2020 18:00:00 11,0 8,4 - - 0,8
16.01.2020 17:00:00 11,2 9,9 - - 1,0
16.01.2020 16:00:00 11,3 9,8 - - 1,2
16.01.2020 15:00:00 11,8 9,7 - - 0,4
16.01.2020 14:00:00 12,3 9,3 - - 0,2
16.01.2020 13:00:00 11,0 8,9 - - 1,4
16.01.2020 12:00:00 10,4 8,1 - - 1,2
16.01.2020 11:00:00 10,8 6,8 - - 0,0
16.01.2020 10:00:00 9,9 5,1 - - 0,0
16.01.2020 09:00:00 9,0 4,1 7,4 8,2 0,0
16.01.2020 08:00:00 9,2 4,5 - - 0,0
16.01.2020 07:00:00 9,1 4,8 - - 0,0
16.01.2020 06:00:00 9,1 5,1 - - 0,0
16.01.2020 05:00:00 9,2 5,5 - - 0,0
16.01.2020 04:00:00 8,8 5,5 - - 0,0
16.01.2020 03:00:00 8,2 5,2 - - 0,0
16.01.2020 02:00:00 8,4 5,4 - - 0,0
16.01.2020 01:00:00 7,8 5,5 - - 0,0
16.01.2020 00:00:00 7,5 5,1 - - 0,0
15.01.2020 23:00:00 7,1 4,6 - - 0,2
15.01.2020 22:00:00 7,7 4,8 - - 0,0

tt = temperature
td = dewpoint
tt -20cm = temperature -20cm
tt -100cm = temperature -100cm
rr = precipitation

Next stations